Garden City, Kansas
Current Conditions -  °F | °C
As of 9:54 AM on Tuesday 21 Oct 2014 (Local Time) from KGCK Reporting Station
Moderate Fog Moderate Fog  
Wind Chill: 12°   Ceiling: 200
Heat Index: 12°   Visibility: 0mi
Dew Point: 12°   Wind: 5mph
Humidity: 100%   Direction: 170°S
Pressure: 30.09"   Gusts: NA
Location:  37.97°N, 100.87°W
Report Text: KGCK 211454Z 17004KT M1/4SM FG VV002 12/12 A3009 RMK AO2 SLP179 T01170117 53005
Loading
Personal Weather Stations






























Interactive Weather Map
Tropical Storm Tracking
New forecast layout! Learn more

10-Day Weather Forecast

Advertisements
Track Severe Weather on mobile